sensor_id;sensor_type;location;lat;lon;timestamp;temperature;humidity
67196;DHT22;54122;53.538;49.366;2023-06-10T00:00:43;17.40;70.20
67196;DHT22;54122;53.538;49.366;2023-06-10T00:03:10;17.40;70.20
67196;DHT22;54122;53.538;49.366;2023-06-10T00:05:36;17.40;70.00
67196;DHT22;54122;53.538;49.366;2023-06-10T00:08:05;17.40;70.10
67196;DHT22;54122;53.538;49.366;2023-06-10T00:10:35;17.40;70.20
67196;DHT22;54122;53.538;49.366;2023-06-10T00:13:06;17.40;70.30
67196;DHT22;54122;53.538;49.366;2023-06-10T00:15:35;17.40;70.30
67196;DHT22;54122;53.538;49.366;2023-06-10T00:18:02;17.40;70.30
67196;DHT22;54122;53.538;49.366;2023-06-10T00:20:30;17.30;70.40
67196;DHT22;54122;53.538;49.366;2023-06-10T00:22:59;17.20;70.40
67196;DHT22;54122;53.538;49.366;2023-06-10T00:25:27;17.20;70.60
67196;DHT22;54122;53.538;49.366;2023-06-10T00:27:53;17.20;70.70
67196;DHT22;54122;53.538;49.366;2023-06-10T00:30:19;17.10;70.80
67196;DHT22;54122;53.538;49.366;2023-06-10T00:32:46;17.10;71.00
67196;DHT22;54122;53.538;49.366;2023-06-10T00:35:12;17.20;70.90
67196;DHT22;54122;53.538;49.366;2023-06-10T00:37:38;17.20;70.70
67196;DHT22;54122;53.538;49.366;2023-06-10T00:40:05;17.20;70.70
67196;DHT22;54122;53.538;49.366;2023-06-10T00:42:32;17.20;70.70
67196;DHT22;54122;53.538;49.366;2023-06-10T00:44:58;17.30;70.70
67196;DHT22;54122;53.538;49.366;2023-06-10T00:47:25;17.30;70.40
67196;DHT22;54122;53.538;49.366;2023-06-10T00:49:52;17.40;70.10
67196;DHT22;54122;53.538;49.366;2023-06-10T00:52:18;17.50;69.80
67196;DHT22;54122;53.538;49.366;2023-06-10T00:54:48;17.50;69.60
67196;DHT22;54122;53.538;49.366;2023-06-10T00:57:15;17.60;69.60
67196;DHT22;54122;53.538;49.366;2023-06-10T00:59:44;17.60;69.50
67196;DHT22;54122;53.538;49.366;2023-06-10T01:02:13;17.60;69.40
67196;DHT22;54122;53.538;49.366;2023-06-10T01:04:39;17.50;69.40
67196;DHT22;54122;53.538;49.366;2023-06-10T01:07:28;17.50;69.80
67196;DHT22;54122;53.538;49.366;2023-06-10T01:10:05;17.40;69.80
67196;DHT22;54122;53.538;49.366;2023-06-10T01:12:46;17.30;70.20
67196;DHT22;54122;53.538;49.366;2023-06-10T01:15:17;17.30;70.50
67196;DHT22;54122;53.538;49.366;2023-06-10T01:17:57;17.20;70.70
67196;DHT22;54122;53.538;49.366;2023-06-10T01:20:27;17.20;70.70
67196;DHT22;54122;53.538;49.366;2023-06-10T01:22:55;17.20;71.10
67196;DHT22;54122;53.538;49.366;2023-06-10T01:25:23;17.20;71.10
67196;DHT22;54122;53.538;49.366;2023-06-10T01:30:28;17.30;71.00
67196;DHT22;54122;53.538;49.366;2023-06-10T01:32:56;17.40;70.80
67196;DHT22;54122;53.538;49.366;2023-06-10T01:35:25;17.50;70.70
67196;DHT22;54122;53.538;49.366;2023-06-10T01:37:54;17.90;70.40
67196;DHT22;54122;53.538;49.366;2023-06-10T01:40:23;18.70;68.50
67196;DHT22;54122;53.538;49.366;2023-06-10T01:42:51;19.70;65.20
67196;DHT22;54122;53.538;49.366;2023-06-10T01:45:18;20.70;62.30
67196;DHT22;54122;53.538;49.366;2023-06-10T01:47:44;21.40;59.70
67196;DHT22;54122;53.538;49.366;2023-06-10T01:50:10;22.00;57.70
67196;DHT22;54122;53.538;49.366;2023-06-10T01:52:37;22.60;55.90
67196;DHT22;54122;53.538;49.366;2023-06-10T01:55:04;23.10;54.30
67196;DHT22;54122;53.538;49.366;2023-06-10T01:57:30;23.50;52.70
67196;DHT22;54122;53.538;49.366;2023-06-10T01:59:56;23.90;51.30
67196;DHT22;54122;53.538;49.366;2023-06-10T02:02:23;24.30;50.20
67196;DHT22;54122;53.538;49.366;2023-06-10T02:04:53;24.60;49.20
67196;DHT22;54122;53.538;49.366;2023-06-10T02:07:19;25.00;48.10
67196;DHT22;54122;53.538;49.366;2023-06-10T02:09:46;25.30;47.00
67196;DHT22;54122;53.538;49.366;2023-06-10T02:12:12;25.60;46.30
67196;DHT22;54122;53.538;49.366;2023-06-10T02:14:38;25.80;45.40
67196;DHT22;54122;53.538;49.366;2023-06-10T02:17:05;26.20;44.50
67196;DHT22;54122;53.538;49.366;2023-06-10T02:19:31;26.40;43.70
67196;DHT22;54122;53.538;49.366;2023-06-10T02:21:57;26.70;43.10
67196;DHT22;54122;53.538;49.366;2023-06-10T02:24:23;27.10;41.80
67196;DHT22;54122;53.538;49.366;2023-06-10T02:26:49;27.30;41.40
67196;DHT22;54122;53.538;49.366;2023-06-10T02:29:17;27.70;40.70
67196;DHT22;54122;53.538;49.366;2023-06-10T02:31:43;28.30;39.80
67196;DHT22;54122;53.538;49.366;2023-06-10T02:34:10;28.80;38.60
67196;DHT22;54122;53.538;49.366;2023-06-10T02:36:36;29.10;37.70
67196;DHT22;54122;53.538;49.366;2023-06-10T02:39:02;28.80;37.50
67196;DHT22;54122;53.538;49.366;2023-06-10T02:41:30;28.00;38.90
67196;DHT22;54122;53.538;49.366;2023-06-10T02:43:56;27.10;41.00
67196;DHT22;54122;53.538;49.366;2023-06-10T02:46:22;26.70;42.20
67196;DHT22;54122;53.538;49.366;2023-06-10T02:48:48;26.80;42.60
67196;DHT22;54122;53.538;49.366;2023-06-10T02:51:17;27.40;41.50
67196;DHT22;54122;53.538;49.366;2023-06-10T02:53:43;28.60;38.80
67196;DHT22;54122;53.538;49.366;2023-06-10T02:56:10;29.40;36.70
67196;DHT22;54122;53.538;49.366;2023-06-10T02:58:37;29.90;35.40
67196;DHT22;54122;53.538;49.366;2023-06-10T03:01:03;30.50;34.60
67196;DHT22;54122;53.538;49.366;2023-06-10T03:03:30;31.10;33.40
67196;DHT22;54122;53.538;49.366;2023-06-10T03:05:56;31.40;32.70
67196;DHT22;54122;53.538;49.366;2023-06-10T03:08:24;31.70;32.30
67196;DHT22;54122;53.538;49.366;2023-06-10T03:10:51;32.00;31.60
67196;DHT22;54122;53.538;49.366;2023-06-10T03:13:17;32.40;31.00
67196;DHT22;54122;53.538;49.366;2023-06-10T03:15:43;32.70;30.00
67196;DHT22;54122;53.538;49.366;2023-06-10T03:18:10;33.00;29.90
67196;DHT22;54122;53.538;49.366;2023-06-10T03:20:36;33.30;29.30
67196;DHT22;54122;53.538;49.366;2023-06-10T03:23:04;33.50;29.00
67196;DHT22;54122;53.538;49.366;2023-06-10T03:25:34;33.80;28.60
67196;DHT22;54122;53.538;49.366;2023-06-10T03:28:01;33.90;28.10
67196;DHT22;54122;53.538;49.366;2023-06-10T03:30:27;34.10;28.00
67196;DHT22;54122;53.538;49.366;2023-06-10T03:32:54;34.20;27.40
67196;DHT22;54122;53.538;49.366;2023-06-10T03:35:20;34.10;27.20
67196;DHT22;54122;53.538;49.366;2023-06-10T03:37:46;33.90;27.40
67196;DHT22;54122;53.538;49.366;2023-06-10T03:40:13;33.90;27.30
67196;DHT22;54122;53.538;49.366;2023-06-10T03:42:39;33.90;27.70
67196;DHT22;54122;53.538;49.366;2023-06-10T03:45:06;34.30;27.30
67196;DHT22;54122;53.538;49.366;2023-06-10T03:47:36;34.60;26.90
67196;DHT22;54122;53.538;49.366;2023-06-10T03:50:04;34.70;26.60
67196;DHT22;54122;53.538;49.366;2023-06-10T03:52:30;35.00;26.40
67196;DHT22;54122;53.538;49.366;2023-06-10T03:54:56;35.20;26.00
67196;DHT22;54122;53.538;49.366;2023-06-10T03:57:24;35.20;26.20
67196;DHT22;54122;53.538;49.366;2023-06-10T03:59:51;35.30;26.30
67196;DHT22;54122;53.538;49.366;2023-06-10T04:02:18;35.60;25.60
67196;DHT22;54122;53.538;49.366;2023-06-10T04:04:44;36.00;25.10
67196;DHT22;54122;53.538;49.366;2023-06-10T04:07:10;36.40;24.90
67196;DHT22;54122;53.538;49.366;2023-06-10T04:09:38;36.60;24.70
67196;DHT22;54122;53.538;49.366;2023-06-10T04:12:05;36.90;24.60
67196;DHT22;54122;53.538;49.366;2023-06-10T04:14:36;36.80;24.30
67196;DHT22;54122;53.538;49.366;2023-06-10T04:17:05;36.30;25.00
67196;DHT22;54122;53.538;49.366;2023-06-10T04:19:34;36.40;24.80
67196;DHT22;54122;53.538;49.366;2023-06-10T04:22:01;36.50;24.50
67196;DHT22;54122;53.538;49.366;2023-06-10T04:24:29;36.50;24.60
67196;DHT22;54122;53.538;49.366;2023-06-10T04:26:55;36.60;24.40
67196;DHT22;54122;53.538;49.366;2023-06-10T04:29:40;36.60;24.30
67196;DHT22;54122;53.538;49.366;2023-06-10T04:32:07;37.00;24.20
67196;DHT22;54122;53.538;49.366;2023-06-10T04:34:34;37.20;23.60
67196;DHT22;54122;53.538;49.366;2023-06-10T04:37:00;37.30;23.50
67196;DHT22;54122;53.538;49.366;2023-06-10T04:39:27;37.30;23.50
67196;DHT22;54122;53.538;49.366;2023-06-10T04:41:53;37.40;23.40
67196;DHT22;54122;53.538;49.366;2023-06-10T04:44:19;37.20;23.60
67196;DHT22;54122;53.538;49.366;2023-06-10T04:46:48;37.20;23.70
67196;DHT22;54122;53.538;49.366;2023-06-10T04:49:14;37.40;23.60
67196;DHT22;54122;53.538;49.366;2023-06-10T04:51:41;37.30;23.30
67196;DHT22;54122;53.538;49.366;2023-06-10T04:54:08;37.50;23.30
67196;DHT22;54122;53.538;49.366;2023-06-10T04:56:34;38.10;22.80
67196;DHT22;54122;53.538;49.366;2023-06-10T04:59:00;38.30;22.40
67196;DHT22;54122;53.538;49.366;2023-06-10T05:01:27;38.30;22.20
67196;DHT22;54122;53.538;49.366;2023-06-10T05:03:53;38.40;22.00
67196;DHT22;54122;53.538;49.366;2023-06-10T05:06:20;38.60;21.90
67196;DHT22;54122;53.538;49.366;2023-06-10T05:08:47;38.50;21.90
67196;DHT22;54122;53.538;49.366;2023-06-10T05:11:13;38.60;22.10
67196;DHT22;54122;53.538;49.366;2023-06-10T05:13:41;38.50;22.00
67196;DHT22;54122;53.538;49.366;2023-06-10T05:16:07;38.30;21.80
67196;DHT22;54122;53.538;49.366;2023-06-10T05:18:34;38.60;21.70
67196;DHT22;54122;53.538;49.366;2023-06-10T05:21:20;38.50;21.80
67196;DHT22;54122;53.538;49.366;2023-06-10T05:23:48;38.50;21.70
67196;DHT22;54122;53.538;49.366;2023-06-10T05:26:16;38.90;21.70
67196;DHT22;54122;53.538;49.366;2023-06-10T05:28:43;39.20;21.20
67196;DHT22;54122;53.538;49.366;2023-06-10T05:31:09;39.40;21.30
67196;DHT22;54122;53.538;49.366;2023-06-10T05:33:38;39.20;21.00
67196;DHT22;54122;53.538;49.366;2023-06-10T05:39:09;39.10;21.00
67196;DHT22;54122;53.538;49.366;2023-06-10T05:41:37;38.90;21.40
67196;DHT22;54122;53.538;49.366;2023-06-10T05:44:03;39.10;21.20
67196;DHT22;54122;53.538;49.366;2023-06-10T05:46:29;39.10;20.60
67196;DHT22;54122;53.538;49.366;2023-06-10T05:48:56;38.80;20.90
67196;DHT22;54122;53.538;49.366;2023-06-10T05:51:22;38.80;21.00
67196;DHT22;54122;53.538;49.366;2023-06-10T05:53:48;38.90;20.60
67196;DHT22;54122;53.538;49.366;2023-06-10T05:56:15;39.10;20.50
67196;DHT22;54122;53.538;49.366;2023-06-10T05:58:41;39.50;19.80
67196;DHT22;54122;53.538;49.366;2023-06-10T06:01:25;39.60;19.10
67196;DHT22;54122;53.538;49.366;2023-06-10T06:03:52;39.20;19.60
67196;DHT22;54122;53.538;49.366;2023-06-10T06:06:18;39.20;20.10
67196;DHT22;54122;53.538;49.366;2023-06-10T06:08:46;39.30;19.70
67196;DHT22;54122;53.538;49.366;2023-06-10T06:11:12;39.50;19.60
67196;DHT22;54122;53.538;49.366;2023-06-10T06:13:39;39.60;19.00
67196;DHT22;54122;53.538;49.366;2023-06-10T06:16:07;39.50;18.80
67196;DHT22;54122;53.538;49.366;2023-06-10T06:18:33;39.40;18.60
67196;DHT22;54122;53.538;49.366;2023-06-10T06:21:00;39.30;18.90
67196;DHT22;54122;53.538;49.366;2023-06-10T06:23:26;39.20;18.90
67196;DHT22;54122;53.538;49.366;2023-06-10T06:25:52;39.20;18.90
67196;DHT22;54122;53.538;49.366;2023-06-10T06:28:19;39.50;18.90
67196;DHT22;54122;53.538;49.366;2023-06-10T06:30:47;40.00;18.50
67196;DHT22;54122;53.538;49.366;2023-06-10T06:33:13;40.00;18.00
67196;DHT22;54122;53.538;49.366;2023-06-10T06:35:39;39.70;18.60
67196;DHT22;54122;53.538;49.366;2023-06-10T06:38:06;39.70;18.60
67196;DHT22;54122;53.538;49.366;2023-06-10T06:40:32;39.80;18.70
67196;DHT22;54122;53.538;49.366;2023-06-10T06:42:58;40.00;18.00
67196;DHT22;54122;53.538;49.366;2023-06-10T06:45:24;40.00;18.20
67196;DHT22;54122;53.538;49.366;2023-06-10T06:47:50;39.80;18.20
67196;DHT22;54122;53.538;49.366;2023-06-10T06:50:17;39.80;18.30
67196;DHT22;54122;53.538;49.366;2023-06-10T06:52:43;39.90;18.30
67196;DHT22;54122;53.538;49.366;2023-06-10T06:55:10;40.00;18.10
67196;DHT22;54122;53.538;49.366;2023-06-10T06:57:36;40.20;18.40
67196;DHT22;54122;53.538;49.366;2023-06-10T07:00:03;40.10;17.70
67196;DHT22;54122;53.538;49.366;2023-06-10T07:02:30;39.70;18.10
67196;DHT22;54122;53.538;49.366;2023-06-10T07:07:43;39.20;18.00
67196;DHT22;54122;53.538;49.366;2023-06-10T07:10:09;38.70;18.70
67196;DHT22;54122;53.538;49.366;2023-06-10T07:12:36;38.70;18.80
67196;DHT22;54122;53.538;49.366;2023-06-10T07:15:02;38.80;18.40
67196;DHT22;54122;53.538;49.366;2023-06-10T07:17:28;38.60;18.30
67196;DHT22;54122;53.538;49.366;2023-06-10T07:19:55;38.20;18.60
67196;DHT22;54122;53.538;49.366;2023-06-10T07:22:23;38.50;18.70
67196;DHT22;54122;53.538;49.366;2023-06-10T07:24:50;38.60;18.30
67196;DHT22;54122;53.538;49.366;2023-06-10T07:27:18;38.50;18.70
67196;DHT22;54122;53.538;49.366;2023-06-10T07:29:44;38.70;18.90
67196;DHT22;54122;53.538;49.366;2023-06-10T07:32:10;38.70;18.80
67196;DHT22;54122;53.538;49.366;2023-06-10T07:34:36;38.70;18.90
67196;DHT22;54122;53.538;49.366;2023-06-10T07:37:03;38.60;19.00
67196;DHT22;54122;53.538;49.366;2023-06-10T07:39:29;38.50;19.10
67196;DHT22;54122;53.538;49.366;2023-06-10T07:41:55;38.30;19.20
67196;DHT22;54122;53.538;49.366;2023-06-10T07:44:23;38.00;19.70
67196;DHT22;54122;53.538;49.366;2023-06-10T07:46:49;37.90;20.20
67196;DHT22;54122;53.538;49.366;2023-06-10T07:49:17;38.20;19.90
67196;DHT22;54122;53.538;49.366;2023-06-10T07:51:45;38.30;19.80
67196;DHT22;54122;53.538;49.366;2023-06-10T07:54:12;38.60;19.30
67196;DHT22;54122;53.538;49.366;2023-06-10T07:56:39;38.00;20.20
67196;DHT22;54122;53.538;49.366;2023-06-10T07:59:05;36.80;21.30
67196;DHT22;54122;53.538;49.366;2023-06-10T08:01:31;36.00;22.50
67196;DHT22;54122;53.538;49.366;2023-06-10T08:03:58;36.70;21.80
67196;DHT22;54122;53.538;49.366;2023-06-10T08:06:25;36.90;21.30
67196;DHT22;54122;53.538;49.366;2023-06-10T08:08:51;37.20;21.30
67196;DHT22;54122;53.538;49.366;2023-06-10T08:11:17;37.50;21.40
67196;DHT22;54122;53.538;49.366;2023-06-10T08:13:44;37.50;21.10
67196;DHT22;54122;53.538;49.366;2023-06-10T08:16:10;37.60;21.00
67196;DHT22;54122;53.538;49.366;2023-06-10T08:18:37;37.50;21.20
67196;DHT22;54122;53.538;49.366;2023-06-10T08:21:03;37.20;21.60
67196;DHT22;54122;53.538;49.366;2023-06-10T08:23:30;37.10;22.00
67196;DHT22;54122;53.538;49.366;2023-06-10T08:25:56;37.50;22.10
67196;DHT22;54122;53.538;49.366;2023-06-10T08:31:30;37.00;22.50
67196;DHT22;54122;53.538;49.366;2023-06-10T08:33:56;36.70;23.00
67196;DHT22;54122;53.538;49.366;2023-06-10T08:36:22;35.90;23.50
67196;DHT22;54122;53.538;49.366;2023-06-10T08:38:49;34.60;25.10
67196;DHT22;54122;53.538;49.366;2023-06-10T08:41:17;33.20;26.80
67196;DHT22;54122;53.538;49.366;2023-06-10T08:43:59;32.30;28.10
67196;DHT22;54122;53.538;49.366;2023-06-10T08:49:34;30.90;30.40
67196;DHT22;54122;53.538;49.366;2023-06-10T08:52:05;30.40;31.20
67196;DHT22;54122;53.538;49.366;2023-06-10T08:54:33;30.10;32.10
67196;DHT22;54122;53.538;49.366;2023-06-10T08:57:05;29.70;32.70
67196;DHT22;54122;53.538;49.366;2023-06-10T08:59:32;29.50;33.50
67196;DHT22;54122;53.538;49.366;2023-06-10T09:01:58;29.50;34.00
67196;DHT22;54122;53.538;49.366;2023-06-10T09:04:25;29.20;34.60
67196;DHT22;54122;53.538;49.366;2023-06-10T09:06:53;28.80;35.30
67196;DHT22;54122;53.538;49.366;2023-06-10T09:09:20;28.50;36.10
67196;DHT22;54122;53.538;49.366;2023-06-10T09:11:46;28.50;36.40
67196;DHT22;54122;53.538;49.366;2023-06-10T09:14:13;28.60;36.70
67196;DHT22;54122;53.538;49.366;2023-06-10T09:16:40;29.00;36.20
67196;DHT22;54122;53.538;49.366;2023-06-10T09:19:08;29.50;34.90
67196;DHT22;54122;53.538;49.366;2023-06-10T09:21:34;29.80;33.40
67196;DHT22;54122;53.538;49.366;2023-06-10T09:24:05;29.80;33.00
67196;DHT22;54122;53.538;49.366;2023-06-10T09:26:31;30.10;32.70
67196;DHT22;54122;53.538;49.366;2023-06-10T09:29:03;30.90;32.20
67196;DHT22;54122;53.538;49.366;2023-06-10T09:31:30;31.70;30.90
67196;DHT22;54122;53.538;49.366;2023-06-10T09:34:07;31.90;29.10
67196;DHT22;54122;53.538;49.366;2023-06-10T09:36:35;31.90;28.60
67196;DHT22;54122;53.538;49.366;2023-06-10T09:39:14;31.70;28.60
67196;DHT22;54122;53.538;49.366;2023-06-10T09:41:45;31.40;28.40
67196;DHT22;54122;53.538;49.366;2023-06-10T09:44:19;30.90;28.80
67196;DHT22;54122;53.538;49.366;2023-06-10T09:46:49;30.30;29.40
67196;DHT22;54122;53.538;49.366;2023-06-10T09:49:17;29.80;30.30
67196;DHT22;54122;53.538;49.366;2023-06-10T09:51:53;29.20;32.00
67196;DHT22;54122;53.538;49.366;2023-06-10T09:54:21;28.60;33.60
67196;DHT22;54122;53.538;49.366;2023-06-10T09:56:49;28.10;35.30
67196;DHT22;54122;53.538;49.366;2023-06-10T09:59:16;27.70;37.00
67196;DHT22;54122;53.538;49.366;2023-06-10T10:01:42;27.20;38.90
67196;DHT22;54122;53.538;49.366;2023-06-10T10:04:09;26.80;41.70
67196;DHT22;54122;53.538;49.366;2023-06-10T10:06:36;26.40;43.40
67196;DHT22;54122;53.538;49.366;2023-06-10T10:09:03;26.00;45.00
67196;DHT22;54122;53.538;49.366;2023-06-10T10:11:30;25.60;46.30
67196;DHT22;54122;53.538;49.366;2023-06-10T10:13:57;25.30;47.70
67196;DHT22;54122;53.538;49.366;2023-06-10T10:16:33;25.00;48.90
67196;DHT22;54122;53.538;49.366;2023-06-10T10:19:10;24.80;50.20
67196;DHT22;54122;53.538;49.366;2023-06-10T10:22:10;24.30;52.20
67196;DHT22;54122;53.538;49.366;2023-06-10T10:24:51;23.80;53.60
67196;DHT22;54122;53.538;49.366;2023-06-10T10:27:35;23.30;56.00
67196;DHT22;54122;53.538;49.366;2023-06-10T10:30:03;22.90;57.40
67196;DHT22;54122;53.538;49.366;2023-06-10T10:32:40;22.70;58.20
67196;DHT22;54122;53.538;49.366;2023-06-10T10:35:16;22.60;59.20
67196;DHT22;54122;53.538;49.366;2023-06-10T10:37:45;22.50;60.60
67196;DHT22;54122;53.538;49.366;2023-06-10T10:40:13;22.40;62.20
67196;DHT22;54122;53.538;49.366;2023-06-10T10:42:41;22.10;64.20
67196;DHT22;54122;53.538;49.366;2023-06-10T10:45:10;21.80;66.20
67196;DHT22;54122;53.538;49.366;2023-06-10T10:47:37;21.30;68.70
67196;DHT22;54122;53.538;49.366;2023-06-10T10:50:18;20.80;71.60
67196;DHT22;54122;53.538;49.366;2023-06-10T10:52:56;20.30;74.10
67196;DHT22;54122;53.538;49.366;2023-06-10T10:55:25;19.70;77.80
67196;DHT22;54122;53.538;49.366;2023-06-10T10:58:14;19.30;80.20
67196;DHT22;54122;53.538;49.366;2023-06-10T11:00:45;19.00;82.40
67196;DHT22;54122;53.538;49.366;2023-06-10T11:03:16;18.80;84.40
67196;DHT22;54122;53.538;49.366;2023-06-10T11:05:44;18.80;86.00
67196;DHT22;54122;53.538;49.366;2023-06-10T11:08:14;18.70;86.20
67196;DHT22;54122;53.538;49.366;2023-06-10T11:11:17;18.70;87.10
67196;DHT22;54122;53.538;49.366;2023-06-10T11:13:58;18.70;85.90
67196;DHT22;54122;53.538;49.366;2023-06-10T11:16:29;18.50;86.00
67196;DHT22;54122;53.538;49.366;2023-06-10T11:18:56;18.50;88.20
67196;DHT22;54122;53.538;49.366;2023-06-10T11:21:25;18.50;87.50
67196;DHT22;54122;53.538;49.366;2023-06-10T11:23:52;18.20;87.40
67196;DHT22;54122;53.538;49.366;2023-06-10T11:29:01;18.00;90.00
67196;DHT22;54122;53.538;49.366;2023-06-10T11:31:40;18.00;90.60
67196;DHT22;54122;53.538;49.366;2023-06-10T11:34:07;18.00;90.90
67196;DHT22;54122;53.538;49.366;2023-06-10T11:36:39;18.00;91.90
67196;DHT22;54122;53.538;49.366;2023-06-10T11:39:09;18.10;92.00
67196;DHT22;54122;53.538;49.366;2023-06-10T11:41:38;18.30;91.90
67196;DHT22;54122;53.538;49.366;2023-06-10T11:44:11;18.50;91.20
67196;DHT22;54122;53.538;49.366;2023-06-10T11:46:38;18.60;90.40
67196;DHT22;54122;53.538;49.366;2023-06-10T11:49:05;18.90;90.20
67196;DHT22;54122;53.538;49.366;2023-06-10T11:51:39;19.20;88.20
67196;DHT22;54122;53.538;49.366;2023-06-10T11:54:08;19.30;86.70
67196;DHT22;54122;53.538;49.366;2023-06-10T11:56:35;19.50;85.70
67196;DHT22;54122;53.538;49.366;2023-06-10T11:59:03;19.70;85.00
67196;DHT22;54122;53.538;49.366;2023-06-10T12:01:32;19.90;84.50
67196;DHT22;54122;53.538;49.366;2023-06-10T12:06:25;20.20;83.20
67196;DHT22;54122;53.538;49.366;2023-06-10T12:08:53;20.20;81.20
67196;DHT22;54122;53.538;49.366;2023-06-10T12:11:19;20.20;80.30
67196;DHT22;54122;53.538;49.366;2023-06-10T12:13:48;20.20;79.20
67196;DHT22;54122;53.538;49.366;2023-06-10T12:16:21;20.30;79.30
67196;DHT22;54122;53.538;49.366;2023-06-10T12:18:51;20.40;78.90
67196;DHT22;54122;53.538;49.366;2023-06-10T12:21:26;20.50;78.70
67196;DHT22;54122;53.538;49.366;2023-06-10T12:24:09;20.50;77.60
67196;DHT22;54122;53.538;49.366;2023-06-10T12:26:44;20.30;77.10
67196;DHT22;54122;53.538;49.366;2023-06-10T12:29:18;20.20;77.70
67196;DHT22;54122;53.538;49.366;2023-06-10T12:31:54;20.20;77.40
67196;DHT22;54122;53.538;49.366;2023-06-10T12:34:35;20.20;77.90
67196;DHT22;54122;53.538;49.366;2023-06-10T12:37:02;20.10;78.50
67196;DHT22;54122;53.538;49.366;2023-06-10T12:39:31;20.20;78.90
67196;DHT22;54122;53.538;49.366;2023-06-10T12:41:58;20.20;78.70
67196;DHT22;54122;53.538;49.366;2023-06-10T12:44:32;20.30;78.70
67196;DHT22;54122;53.538;49.366;2023-06-10T12:46:58;20.30;78.80
67196;DHT22;54122;53.538;49.366;2023-06-10T12:49:24;20.40;78.00
67196;DHT22;54122;53.538;49.366;2023-06-10T12:51:53;20.50;77.30
67196;DHT22;54122;53.538;49.366;2023-06-10T12:54:19;20.60;76.70
67196;DHT22;54122;53.538;49.366;2023-06-10T12:56:46;20.60;75.40
67196;DHT22;54122;53.538;49.366;2023-06-10T12:59:15;20.80;75.10
67196;DHT22;54122;53.538;49.366;2023-06-10T13:01:41;21.00;74.10
67196;DHT22;54122;53.538;49.366;2023-06-10T13:04:07;20.90;73.70
67196;DHT22;54122;53.538;49.366;2023-06-10T13:06:34;20.70;74.70
67196;DHT22;54122;53.538;49.366;2023-06-10T13:09:03;20.50;75.60
67196;DHT22;54122;53.538;49.366;2023-06-10T13:11:29;20.30;76.50
67196;DHT22;54122;53.538;49.366;2023-06-10T13:13:55;20.20;76.80
67196;DHT22;54122;53.538;49.366;2023-06-10T13:16:25;20.10;77.00
67196;DHT22;54122;53.538;49.366;2023-06-10T13:18:53;20.00;77.00
67196;DHT22;54122;53.538;49.366;2023-06-10T13:21:19;20.00;76.30
67196;DHT22;54122;53.538;49.366;2023-06-10T13:23:46;20.00;75.80
67196;DHT22;54122;53.538;49.366;2023-06-10T13:26:14;20.00;75.40
67196;DHT22;54122;53.538;49.366;2023-06-10T13:28:46;20.00;74.40
67196;DHT22;54122;53.538;49.366;2023-06-10T13:31:14;20.00;73.90
67196;DHT22;54122;53.538;49.366;2023-06-10T13:33:41;20.00;73.50
67196;DHT22;54122;53.538;49.366;2023-06-10T13:36:09;19.90;72.60
67196;DHT22;54122;53.538;49.366;2023-06-10T13:38:36;19.70;71.60
67196;DHT22;54122;53.538;49.366;2023-06-10T13:41:03;19.50;71.60
67196;DHT22;54122;53.538;49.366;2023-06-10T13:43:29;19.30;72.10
67196;DHT22;54122;53.538;49.366;2023-06-10T13:45:56;19.10;73.00
67196;DHT22;54122;53.538;49.366;2023-06-10T13:48:22;19.20;73.20
67196;DHT22;54122;53.538;49.366;2023-06-10T13:50:48;19.40;73.10
67196;DHT22;54122;53.538;49.366;2023-06-10T13:53:15;19.90;71.90
67196;DHT22;54122;53.538;49.366;2023-06-10T13:55:41;20.30;70.20
67196;DHT22;54122;53.538;49.366;2023-06-10T13:58:08;20.70;68.80
67196;DHT22;54122;53.538;49.366;2023-06-10T14:00:34;20.90;67.20
67196;DHT22;54122;53.538;49.366;2023-06-10T14:03:01;21.00;66.90
67196;DHT22;54122;53.538;49.366;2023-06-10T14:05:29;20.90;66.00
67196;DHT22;54122;53.538;49.366;2023-06-10T14:07:56;20.90;66.30
67196;DHT22;54122;53.538;49.366;2023-06-10T14:10:22;20.90;66.30
67196;DHT22;54122;53.538;49.366;2023-06-10T14:12:49;20.90;66.20
67196;DHT22;54122;53.538;49.366;2023-06-10T14:15:15;20.80;66.30
67196;DHT22;54122;53.538;49.366;2023-06-10T14:17:42;20.70;66.50
67196;DHT22;54122;53.538;49.366;2023-06-10T14:20:09;20.80;66.80
67196;DHT22;54122;53.538;49.366;2023-06-10T14:22:35;20.80;66.90
67196;DHT22;54122;53.538;49.366;2023-06-10T14:25:02;21.00;67.10
67196;DHT22;54122;53.538;49.366;2023-06-10T14:27:28;21.20;66.90
67196;DHT22;54122;53.538;49.366;2023-06-10T14:29:56;21.30;66.30
67196;DHT22;54122;53.538;49.366;2023-06-10T14:32:22;21.40;66.20
67196;DHT22;54122;53.538;49.366;2023-06-10T14:34:48;21.30;65.80
67196;DHT22;54122;53.538;49.366;2023-06-10T14:37:15;21.30;65.80
67196;DHT22;54122;53.538;49.366;2023-06-10T14:39:43;21.30;65.80
67196;DHT22;54122;53.538;49.366;2023-06-10T14:42:10;21.30;65.10
67196;DHT22;54122;53.538;49.366;2023-06-10T14:44:36;21.30;65.10
67196;DHT22;54122;53.538;49.366;2023-06-10T14:47:03;21.30;65.20
67196;DHT22;54122;53.538;49.366;2023-06-10T14:49:31;21.20;64.90
67196;DHT22;54122;53.538;49.366;2023-06-10T14:51:57;21.00;65.20
67196;DHT22;54122;53.538;49.366;2023-06-10T14:54:23;20.80;65.70
67196;DHT22;54122;53.538;49.366;2023-06-10T14:56:50;20.60;65.50
67196;DHT22;54122;53.538;49.366;2023-06-10T14:59:16;20.40;65.90
67196;DHT22;54122;53.538;49.366;2023-06-10T15:01:42;20.30;66.30
67196;DHT22;54122;53.538;49.366;2023-06-10T15:04:09;20.20;65.40
67196;DHT22;54122;53.538;49.366;2023-06-10T15:06:35;20.10;65.50
67196;DHT22;54122;53.538;49.366;2023-06-10T15:09:01;20.00;65.40
67196;DHT22;54122;53.538;49.366;2023-06-10T15:11:27;19.90;65.70
67196;DHT22;54122;53.538;49.366;2023-06-10T15:13:54;19.90;65.60
67196;DHT22;54122;53.538;49.366;2023-06-10T15:16:20;19.90;65.70
67196;DHT22;54122;53.538;49.366;2023-06-10T15:18:46;20.00;65.70
67196;DHT22;54122;53.538;49.366;2023-06-10T15:21:12;20.00;65.10
67196;DHT22;54122;53.538;49.366;2023-06-10T15:23:39;20.00;65.00
67196;DHT22;54122;53.538;49.366;2023-06-10T15:26:07;19.90;65.30
67196;DHT22;54122;53.538;49.366;2023-06-10T15:28:33;19.80;65.90
67196;DHT22;54122;53.538;49.366;2023-06-10T15:31:00;19.80;66.00
67196;DHT22;54122;53.538;49.366;2023-06-10T15:33:27;19.80;66.20
67196;DHT22;54122;53.538;49.366;2023-06-10T15:35:54;19.80;66.40
67196;DHT22;54122;53.538;49.366;2023-06-10T15:38:20;19.60;66.10
67196;DHT22;54122;53.538;49.366;2023-06-10T15:40:46;19.50;66.10